Nerstrand, Minnesota
Current Conditions -  °F | °C
As of 8:54 AM on Thursday 30 Oct 2014 (Local Time) from KSYN Reporting Station
Drizzle Drizzle  
Wind Chill: 41°   Ceiling: 4900
Heat Index: 41°   Visibility: 10mi
Dew Point: 35°   Wind: 0mph
Humidity: 80%   Direction: NA
Pressure: 30.04"   Gusts: NA
Location:  44.34°N, 93.07°W
Report Text: KSYN 301354Z AUTO 00000KT 10SM -DZ BKN049 OVC055 05/02 A3004 RMK AO2 T00500018
Loading
Personal Weather Stations






























Interactive Weather Map
Tropical Storm Tracking
New forecast layout! Learn more

10-Day Weather Forecast

Advertisements
Track Severe Weather on mobile